Terminal Aerodrome Forecast
Issued by NWS Billings, MT

Home | Current Version | Previous Version | Text Only | Print | Product List | Glossary On
Versions: 1 2 3 4 5 6 7 8 9 10 11 12 13 14 15 16 17 18 19 20 21 22 23 24 25 26
000
FTUS45 KBYZ 030526
TAFSHR
TAF
KSHR 030526Z 0306/0406 16006KT P6SM SCT200
     FM030800 33012KT P6SM FEW100 SCT200
     FM031600 04010KT P6SM FEW100 SCT200
     FM040200 02010KT P6SM SCT100 BKN150=

USA.gov is the U.S. government's official web portal to all federal, state and local government web resources and services.